createdAt,value
2017-06-06T00:00:07.660Z,12.92
2017-06-06T00:01:03.916Z,12.92
2017-06-06T00:02:00.167Z,12.92
2017-06-06T00:02:56.411Z,12.92
2017-06-06T00:03:52.684Z,12.92
2017-06-06T00:04:48.896Z,12.92
2017-06-06T00:05:45.164Z,12.92
2017-06-06T00:06:41.403Z,12.92
2017-06-06T00:07:37.644Z,12.92
2017-06-06T00:08:33.870Z,12.92
2017-06-06T00:09:30.110Z,12.92
2017-06-06T00:10:26.390Z,12.92
2017-06-06T00:11:22.645Z,12.92
2017-06-06T00:12:18.894Z,12.92
2017-06-06T00:13:15.127Z,12.92
2017-06-06T00:14:11.373Z,12.92
2017-06-06T00:15:07.607Z,12.92
2017-06-06T00:16:03.863Z,12.92
2017-06-06T00:17:00.115Z,12.92
2017-06-06T00:17:56.350Z,12.92
2017-06-06T00:18:52.579Z,12.92
2017-06-06T00:19:48.819Z,12.92
2017-06-06T00:20:45.064Z,12.92
2017-06-06T00:21:41.323Z,12.92
2017-06-06T00:22:37.574Z,12.90
2017-06-06T00:23:33.834Z,12.90
2017-06-06T00:24:30.084Z,12.90
2017-06-06T00:25:26.339Z,12.90
2017-06-06T00:26:22.603Z,12.90
2017-06-06T00:27:18.858Z,12.90
2017-06-06T00:28:15.095Z,12.92
2017-06-06T00:29:11.335Z,12.92
2017-06-06T00:30:07.566Z,12.90
2017-06-06T00:31:03.813Z,12.92
2017-06-06T00:32:00.062Z,12.90
2017-06-06T00:32:56.382Z,12.92
2017-06-06T00:33:52.619Z,12.90
2017-06-06T00:34:48.863Z,12.90
2017-06-06T00:35:45.114Z,12.90
2017-06-06T00:36:41.364Z,12.90
2017-06-06T00:37:37.615Z,12.90
2017-06-06T00:38:33.882Z,12.90
2017-06-06T00:39:30.135Z,12.90
2017-06-06T00:40:26.367Z,12.90
2017-06-06T00:41:22.615Z,12.90
2017-06-06T00:42:18.860Z,12.90
2017-06-06T00:43:15.110Z,12.90
2017-06-06T00:44:11.343Z,12.90
2017-06-06T00:45:07.587Z,12.90
2017-06-06T00:46:03.835Z,12.89
2017-06-06T00:47:00.084Z,12.89
2017-06-06T00:47:56.332Z,12.89
2017-06-06T00:48:52.590Z,12.89
2017-06-06T00:49:48.830Z,12.89
2017-06-06T00:50:45.071Z,12.89
2017-06-06T00:51:41.311Z,12.90
2017-06-06T00:52:37.559Z,12.89
2017-06-06T00:53:33.806Z,12.89
2017-06-06T00:54:30.052Z,12.89
2017-06-06T00:55:26.296Z,12.89
2017-06-06T00:56:22.534Z,12.89
2017-06-06T00:57:18.779Z,12.90
2017-06-06T00:58:15.019Z,12.89
2017-06-06T00:59:11.295Z,12.89
2017-06-06T01:00:07.538Z,12.89
2017-06-06T01:01:03.775Z,12.89
2017-06-06T01:02:00.019Z,12.89
2017-06-06T01:02:56.255Z,12.89
2017-06-06T01:03:52.486Z,12.89
2017-06-06T01:04:48.954Z,12.87
2017-06-06T01:05:45.194Z,12.89
2017-06-06T01:06:41.435Z,12.89
2017-06-06T01:07:37.671Z,12.89
2017-06-06T01:08:33.906Z,12.89
2017-06-06T01:09:30.150Z,12.87
2017-06-06T01:10:26.411Z,12.87
2017-06-06T01:11:22.659Z,12.87
2017-06-06T01:12:18.908Z,12.87
2017-06-06T01:13:15.159Z,12.89
2017-06-06T01:14:11.407Z,12.87
2017-06-06T01:15:07.694Z,12.87
2017-06-06T01:16:03.931Z,12.87
2017-06-06T01:17:00.170Z,12.89
2017-06-06T01:17:56.426Z,12.87
2017-06-06T01:18:52.669Z,12.87
2017-06-06T01:19:48.900Z,12.87
2017-06-06T01:20:45.151Z,12.87
2017-06-06T01:21:46.102Z,12.86
2017-06-06T01:22:42.394Z,12.87
2017-06-06T01:23:43.326Z,12.86
2017-06-06T01:24:39.626Z,12.87
2017-06-06T01:25:37.135Z,12.87
2017-06-06T01:26:38.075Z,12.87
2017-06-06T01:27:34.354Z,12.87
2017-06-06T01:28:31.982Z,12.86
2017-06-06T01:29:32.920Z,12.86
2017-06-06T01:30:29.227Z,12.86
2017-06-06T01:31:30.186Z,12.86
2017-06-06T01:32:31.115Z,12.86
2017-06-06T01:33:32.058Z,12.86
2017-06-06T01:34:33.002Z,12.86
2017-06-06T01:35:29.242Z,12.86
2017-06-06T01:36:25.503Z,12.86
2017-06-06T01:37:21.754Z,12.84
2017-06-06T01:38:18.022Z,12.84
2017-06-06T01:39:14.298Z,12.86
2017-06-06T01:40:10.542Z,12.84
2017-06-06T01:41:06.827Z,12.84
2017-06-06T01:42:03.071Z,12.84
2017-06-06T01:42:59.314Z,12.84
2017-06-06T01:43:55.562Z,12.84
2017-06-06T01:44:51.808Z,12.84
2017-06-06T01:45:48.045Z,12.84
2017-06-06T01:46:44.327Z,12.84
2017-06-06T01:47:40.567Z,12.84
2017-06-06T01:48:36.803Z,12.84
2017-06-06T01:49:33.042Z,12.84
2017-06-06T01:50:29.290Z,12.84
2017-06-06T01:51:25.531Z,12.84
2017-06-06T01:52:21.800Z,12.84
2017-06-06T01:53:18.043Z,12.84
2017-06-06T01:54:14.321Z,12.84
2017-06-06T01:55:10.546Z,12.84
2017-06-06T01:56:06.787Z,12.83
2017-06-06T01:57:03.070Z,12.84
2017-06-06T01:57:59.315Z,12.84
2017-06-06T01:58:55.554Z,12.83
2017-06-06T01:59:51.802Z,12.84
2017-06-06T02:00:48.047Z,12.84
2017-06-06T02:01:44.291Z,12.84
2017-06-06T02:02:40.556Z,12.83
2017-06-06T02:03:36.819Z,12.83
2017-06-06T02:04:33.091Z,12.83
2017-06-06T02:05:29.347Z,12.83
2017-06-06T02:06:25.630Z,12.83
2017-06-06T02:07:21.965Z,12.83
2017-06-06T02:08:18.235Z,12.83
2017-06-06T02:09:14.499Z,12.83
2017-06-06T02:10:10.782Z,12.83
2017-06-06T02:11:07.042Z,12.83
2017-06-06T02:12:03.338Z,12.83
2017-06-06T02:12:59.614Z,12.83
2017-06-06T02:13:55.875Z,12.83
2017-06-06T02:14:52.135Z,12.83
2017-06-06T02:15:48.407Z,12.83
2017-06-06T02:16:44.663Z,12.83
2017-06-06T02:17:40.913Z,12.83
2017-06-06T02:18:37.191Z,12.82
2017-06-06T02:19:33.447Z,12.83
2017-06-06T02:20:29.728Z,12.83
2017-06-06T02:21:26.007Z,12.82
2017-06-06T02:22:22.287Z,12.83
2017-06-06T02:23:18.570Z,12.83
2017-06-06T02:24:14.855Z,12.83
2017-06-06T02:25:11.145Z,12.82
2017-06-06T02:26:07.399Z,12.82
2017-06-06T02:27:03.668Z,12.82
2017-06-06T02:27:59.918Z,12.82
2017-06-06T02:28:56.205Z,12.82
2017-06-06T02:29:52.470Z,12.82
2017-06-06T02:30:49.132Z,12.82
2017-06-06T02:31:45.419Z,12.82
2017-06-06T02:32:41.688Z,12.82
2017-06-06T02:33:37.977Z,12.82
2017-06-06T02:34:34.287Z,12.82
2017-06-06T02:35:30.552Z,12.82
2017-06-06T02:36:27.224Z,12.82
2017-06-06T02:37:23.496Z,12.82
2017-06-06T02:38:19.766Z,12.82
2017-06-06T02:39:16.079Z,12.82
2017-06-06T02:40:12.351Z,12.82
2017-06-06T02:41:08.644Z,12.82
2017-06-06T02:42:04.935Z,12.82
2017-06-06T02:43:01.197Z,12.80
2017-06-06T02:43:57.475Z,12.82
2017-06-06T02:44:53.839Z,12.80
2017-06-06T02:45:50.109Z,12.82
2017-06-06T02:46:46.375Z,12.82
2017-06-06T02:47:42.643Z,12.82
2017-06-06T02:48:38.894Z,12.80
2017-06-06T02:49:35.162Z,12.82
2017-06-06T02:50:31.450Z,12.80
2017-06-06T02:51:27.708Z,12.82
2017-06-06T02:52:23.966Z,12.80
2017-06-06T02:53:20.231Z,12.80
2017-06-06T02:54:16.482Z,12.80
2017-06-06T02:55:12.787Z,12.80
2017-06-06T02:56:09.094Z,12.80
2017-06-06T02:57:05.370Z,12.80
2017-06-06T02:58:01.642Z,12.80
2017-06-06T02:58:57.918Z,12.80
2017-06-06T02:59:54.179Z,12.80
2017-06-06T03:00:50.439Z,12.79
2017-06-06T03:01:46.718Z,12.80
2017-06-06T03:02:42.987Z,12.80
2017-06-06T03:03:39.259Z,12.80
2017-06-06T03:04:35.531Z,12.80
2017-06-06T03:05:31.802Z,12.82
2017-06-06T03:06:28.077Z,12.82
2017-06-06T03:07:24.359Z,12.80
2017-06-06T03:08:20.627Z,12.82
2017-06-06T03:09:16.878Z,12.82
2017-06-06T03:10:13.126Z,12.80
2017-06-06T03:11:09.375Z,12.82
2017-06-06T03:12:05.646Z,12.82
2017-06-06T03:13:01.919Z,12.83
2017-06-06T03:13:58.171Z,12.83
2017-06-06T03:14:54.434Z,12.83
2017-06-06T03:15:50.679Z,12.83
2017-06-06T03:16:46.925Z,12.83
2017-06-06T03:17:43.207Z,12.83
2017-06-06T03:18:39.462Z,12.83
2017-06-06T03:19:35.723Z,12.84
2017-06-06T03:20:31.975Z,12.84
2017-06-06T03:21:28.235Z,12.84
2017-06-06T03:22:24.493Z,12.84
2017-06-06T03:23:20.779Z,12.83
2017-06-06T03:24:17.023Z,12.83
2017-06-06T03:25:13.286Z,12.83
2017-06-06T03:26:09.544Z,12.83
2017-06-06T03:27:05.795Z,12.83
2017-06-06T03:28:02.083Z,12.83
2017-06-06T03:28:58.456Z,12.82
2017-06-06T03:29:54.710Z,12.83
2017-06-06T03:30:50.969Z,12.83
2017-06-06T03:31:47.228Z,12.83
2017-06-06T03:32:43.491Z,12.83
2017-06-06T03:33:39.766Z,12.84
2017-06-06T03:34:36.035Z,12.84
2017-06-06T03:35:32.300Z,12.86
2017-06-06T03:36:28.575Z,12.87
2017-06-06T03:37:25.695Z,12.87
2017-06-06T03:38:21.991Z,12.89
2017-06-06T03:39:18.259Z,12.90
2017-06-06T03:40:14.518Z,12.90
2017-06-06T03:41:10.774Z,12.92
2017-06-06T03:42:07.027Z,12.92
2017-06-06T03:43:03.275Z,12.93
2017-06-06T03:43:59.563Z,12.95
2017-06-06T03:44:55.811Z,12.95
2017-06-06T03:45:52.084Z,12.96
2017-06-06T03:46:48.340Z,12.98
2017-06-06T03:47:44.590Z,12.98
2017-06-06T03:48:40.831Z,13.01
2017-06-06T03:49:37.095Z,13.02
2017-06-06T03:50:33.371Z,13.04
2017-06-06T03:51:29.635Z,13.04
2017-06-06T03:52:25.895Z,13.06
2017-06-06T03:53:22.143Z,13.06
2017-06-06T03:54:18.411Z,13.09
2017-06-06T03:55:14.686Z,13.12
2017-06-06T03:56:10.926Z,13.18
2017-06-06T03:57:07.168Z,13.23
2017-06-06T03:58:03.415Z,13.27
2017-06-06T03:58:59.667Z,13.30
2017-06-06T03:59:55.931Z,13.34
2017-06-06T04:00:52.174Z,13.39
2017-06-06T04:01:48.410Z,13.42
2017-06-06T04:02:44.675Z,13.48
2017-06-06T04:03:40.907Z,13.50
2017-06-06T04:04:37.151Z,13.52
2017-06-06T04:05:33.407Z,13.55
2017-06-06T04:06:29.639Z,13.58
2017-06-06T04:07:25.871Z,13.61
2017-06-06T04:08:22.114Z,13.64
2017-06-06T04:09:18.346Z,13.67
2017-06-06T04:10:14.579Z,13.70
2017-06-06T04:11:10.847Z,13.72
2017-06-06T04:12:07.114Z,13.75
2017-06-06T04:13:03.358Z,13.77
2017-06-06T04:13:59.598Z,13.80
2017-06-06T04:14:55.822Z,13.83
2017-06-06T04:15:52.074Z,13.86
2017-06-06T04:16:48.310Z,13.89
2017-06-06T04:17:45.167Z,13.91
2017-06-06T04:18:41.414Z,13.93
2017-06-06T04:19:37.658Z,13.94
2017-06-06T04:20:33.894Z,13.96
2017-06-06T04:21:34.851Z,13.96
2017-06-06T04:22:31.089Z,13.94
2017-06-06T04:23:27.334Z,13.96
2017-06-06T04:24:23.566Z,13.94
2017-06-06T04:25:19.806Z,13.94
2017-06-06T04:26:16.087Z,13.93
2017-06-06T04:27:12.387Z,13.93
2017-06-06T04:28:08.679Z,13.91
2017-06-06T04:29:04.970Z,13.90
2017-06-06T04:30:01.266Z,13.90
2017-06-06T04:30:57.506Z,13.89
2017-06-06T04:31:53.763Z,13.87
2017-06-06T04:32:49.995Z,13.86
2017-06-06T04:33:46.243Z,13.84
2017-06-06T04:34:42.479Z,13.83
2017-06-06T04:35:38.729Z,13.83
2017-06-06T04:36:34.970Z,13.81
2017-06-06T04:37:31.227Z,13.81
2017-06-06T04:38:27.485Z,13.81
2017-06-06T04:39:23.742Z,13.81
2017-06-06T04:40:20.011Z,13.81
2017-06-06T04:41:16.247Z,13.81
2017-06-06T04:42:12.479Z,13.81
2017-06-06T04:43:08.734Z,13.83
2017-06-06T04:44:05.079Z,13.83
2017-06-06T04:45:01.321Z,13.84
2017-06-06T04:45:57.555Z,13.87
2017-06-06T04:46:53.795Z,13.89
2017-06-06T04:47:50.050Z,13.91
2017-06-06T04:48:46.286Z,13.93
2017-06-06T04:49:42.527Z,13.96
2017-06-06T04:50:38.763Z,13.96
2017-06-06T04:51:35.018Z,13.96
2017-06-06T04:52:31.263Z,13.94
2017-06-06T04:53:27.535Z,13.96
2017-06-06T04:54:23.771Z,13.96
2017-06-06T04:55:20.014Z,13.91
2017-06-06T04:56:16.254Z,13.96
2017-06-06T04:57:12.496Z,13.96
2017-06-06T04:58:08.739Z,13.91
2017-06-06T04:59:05.074Z,13.91
2017-06-06T05:00:01.310Z,13.91
2017-06-06T05:00:57.550Z,13.96
2017-06-06T05:01:53.771Z,13.96
2017-06-06T05:02:50.007Z,13.91
2017-06-06T05:03:46.247Z,13.96
2017-06-06T05:04:42.579Z,13.99
2017-06-06T05:05:38.818Z,13.99
2017-06-06T05:06:35.059Z,13.93
2017-06-06T05:07:31.299Z,13.93
2017-06-06T05:08:27.547Z,13.99
2017-06-06T05:09:23.787Z,13.93
2017-06-06T05:10:20.034Z,13.93
2017-06-06T05:11:16.292Z,13.91
2017-06-06T05:12:12.534Z,13.93
2017-06-06T05:13:08.779Z,13.99
2017-06-06T05:14:05.062Z,13.99
2017-06-06T05:15:01.311Z,13.99
2017-06-06T05:15:57.582Z,13.93
2017-06-06T05:16:53.831Z,14.00
2017-06-06T05:17:50.087Z,14.02
2017-06-06T05:18:46.378Z,13.94
2017-06-06T05:19:42.626Z,13.94
2017-06-06T05:20:38.875Z,13.94
2017-06-06T05:21:35.132Z,13.93
2017-06-06T05:22:31.376Z,13.99
2017-06-06T05:23:27.614Z,13.99
2017-06-06T05:24:23.855Z,13.99
2017-06-06T05:25:20.091Z,13.96
2017-06-06T05:26:16.342Z,13.97
2017-06-06T05:27:12.584Z,13.99
2017-06-06T05:28:08.820Z,13.99
2017-06-06T05:29:05.058Z,13.93
2017-06-06T05:31:03.331Z,13.99
2017-06-06T05:31:59.587Z,13.99
2017-06-06T05:32:55.830Z,13.94
2017-06-06T05:33:52.070Z,14.00
2017-06-06T05:34:48.326Z,14.02
2017-06-06T05:35:44.566Z,14.02
2017-06-06T05:36:40.811Z,14.02
2017-06-06T05:37:37.060Z,14.03
2017-06-06T05:38:33.298Z,13.94
2017-06-06T05:39:29.539Z,14.03
2017-06-06T05:40:25.783Z,14.05
2017-06-06T05:41:22.032Z,14.05
2017-06-06T05:42:18.298Z,13.94
2017-06-06T05:43:14.535Z,13.94
2017-06-06T05:44:10.791Z,13.94
2017-06-06T05:45:07.030Z,13.94
2017-06-06T05:46:03.270Z,13.94
2017-06-06T05:46:59.496Z,13.94
2017-06-06T05:47:55.766Z,13.94
2017-06-06T05:48:52.003Z,14.06
2017-06-06T05:49:48.242Z,13.94
2017-06-06T05:50:44.467Z,13.94
2017-06-06T05:51:40.706Z,13.94
2017-06-06T05:52:36.951Z,13.94
2017-06-06T05:53:33.198Z,13.94
2017-06-06T05:54:29.438Z,14.02
2017-06-06T05:55:25.680Z,14.03
2017-06-06T05:56:21.915Z,13.94
2017-06-06T05:57:18.144Z,13.94
2017-06-06T05:58:14.395Z,13.94
2017-06-06T05:59:10.631Z,13.94
2017-06-06T06:00:06.896Z,13.94
2017-06-06T06:01:03.138Z,14.06
2017-06-06T06:01:59.366Z,13.94
2017-06-06T06:02:55.598Z,13.94
2017-06-06T06:03:51.870Z,13.94
2017-06-06T06:04:48.106Z,13.93
2017-06-06T06:05:44.346Z,14.05
2017-06-06T06:06:40.588Z,13.93
2017-06-06T06:07:36.827Z,14.06
2017-06-06T06:08:33.079Z,13.93
2017-06-06T06:09:29.307Z,13.93
2017-06-06T06:10:25.542Z,14.05
2017-06-06T06:11:21.779Z,13.94
2017-06-06T06:12:18.015Z,13.93
2017-06-06T06:13:14.246Z,13.94
2017-06-06T06:14:10.491Z,13.94
2017-06-06T06:15:06.730Z,13.94
2017-06-06T06:16:02.958Z,13.93
2017-06-06T06:16:59.192Z,13.94
2017-06-06T06:17:55.433Z,13.93
2017-06-06T06:18:51.662Z,13.94
2017-06-06T06:19:47.930Z,13.94
2017-06-06T06:20:44.160Z,13.94
2017-06-06T06:21:40.387Z,13.93
2017-06-06T06:22:36.623Z,14.05
2017-06-06T06:23:32.855Z,13.93
2017-06-06T06:24:29.086Z,13.94
2017-06-06T06:25:25.334Z,13.93
2017-06-06T06:26:21.575Z,13.94
2017-06-06T06:27:17.814Z,13.93
2017-06-06T06:28:14.042Z,14.06
2017-06-06T06:29:10.282Z,13.94
2017-06-06T06:30:06.547Z,13.93
2017-06-06T06:31:02.786Z,13.94
2017-06-06T06:31:59.015Z,13.96
2017-06-06T06:32:55.250Z,13.94
2017-06-06T06:33:51.475Z,14.06
2017-06-06T06:34:47.714Z,14.06
2017-06-06T06:35:43.958Z,13.93
2017-06-06T06:36:40.196Z,13.94
2017-06-06T06:37:36.424Z,13.93
2017-06-06T06:38:32.695Z,13.93
2017-06-06T06:39:28.931Z,13.94
2017-06-06T06:40:25.174Z,14.06
2017-06-06T06:41:21.439Z,13.94
2017-06-06T06:42:17.679Z,13.93
2017-06-06T06:43:13.916Z,13.93
2017-06-06T06:44:11.079Z,13.93
2017-06-06T06:45:07.318Z,14.09
2017-06-06T06:46:03.580Z,13.93
2017-06-06T06:46:59.824Z,13.93
2017-06-06T06:47:56.050Z,13.93
2017-06-06T06:48:52.291Z,13.93
2017-06-06T06:49:48.527Z,13.93
2017-06-06T06:50:44.766Z,13.93
2017-06-06T06:51:41.018Z,13.93
2017-06-06T06:52:37.258Z,13.93
2017-06-06T06:53:33.482Z,13.93
2017-06-06T06:54:29.706Z,13.93
2017-06-06T06:55:25.935Z,13.94
2017-06-06T06:56:22.154Z,13.93
2017-06-06T06:57:18.394Z,13.93
2017-06-06T06:58:14.631Z,13.93
2017-06-06T06:59:10.865Z,13.93
2017-06-06T07:00:07.090Z,13.93
2017-06-06T07:01:03.320Z,13.93
2017-06-06T07:01:59.567Z,13.93
2017-06-06T07:02:55.803Z,13.93
2017-06-06T07:03:52.043Z,13.93
2017-06-06T07:04:48.279Z,14.05
2017-06-06T07:05:44.516Z,13.93
2017-06-06T07:06:40.755Z,13.93
2017-06-06T07:07:36.998Z,13.93
2017-06-06T07:08:33.235Z,13.93
2017-06-06T07:09:29.459Z,13.93
2017-06-06T07:10:25.691Z,13.93
2017-06-06T07:11:21.922Z,13.93
2017-06-06T07:12:18.163Z,13.93
2017-06-06T07:13:14.410Z,13.93
2017-06-06T07:14:10.643Z,13.93
2017-06-06T07:15:06.870Z,13.93
2017-06-06T07:16:03.111Z,13.93
2017-06-06T07:16:59.340Z,13.93
2017-06-06T07:17:55.594Z,14.12
2017-06-06T07:18:51.821Z,14.12
2017-06-06T07:19:48.055Z,14.12
2017-06-06T07:20:44.299Z,13.93
2017-06-06T07:21:40.534Z,14.11
2017-06-06T07:22:36.767Z,13.93
2017-06-06T07:23:33.020Z,13.91
2017-06-06T07:24:29.269Z,13.91
2017-06-06T07:25:25.519Z,13.91
2017-06-06T07:26:21.771Z,13.91
2017-06-06T07:27:18.011Z,13.90
2017-06-06T07:28:14.254Z,13.91
2017-06-06T07:29:10.511Z,13.91
2017-06-06T07:30:06.750Z,13.91
2017-06-06T07:31:02.986Z,13.90
2017-06-06T07:31:59.283Z,13.90
2017-06-06T07:32:55.531Z,13.90
2017-06-06T07:33:51.786Z,13.90
2017-06-06T07:34:48.042Z,13.90
2017-06-06T07:35:44.284Z,14.31
2017-06-06T07:36:40.526Z,13.90
2017-06-06T07:37:36.811Z,13.90
2017-06-06T07:38:33.063Z,13.90
2017-06-06T07:39:29.313Z,13.89
2017-06-06T07:40:25.563Z,14.28
2017-06-06T07:41:21.820Z,13.90
2017-06-06T07:42:18.078Z,13.89
2017-06-06T07:43:14.331Z,14.21
2017-06-06T07:44:10.583Z,13.90
2017-06-06T07:45:08.707Z,13.90
2017-06-06T07:46:06.690Z,13.90
2017-06-06T07:47:03.279Z,13.90
2017-06-06T07:47:59.518Z,13.90
2017-06-06T07:48:55.755Z,13.90
2017-06-06T07:49:52.041Z,13.90
2017-06-06T07:50:48.293Z,13.91
2017-06-06T07:51:44.547Z,13.90
2017-06-06T07:52:40.794Z,13.91
2017-06-06T07:53:37.038Z,14.34
2017-06-06T07:54:33.293Z,13.91
2017-06-06T07:55:29.622Z,13.90
2017-06-06T07:56:25.854Z,13.90
2017-06-06T07:57:22.719Z,13.90
2017-06-06T07:58:18.982Z,13.90
2017-06-06T07:59:15.230Z,13.90
2017-06-06T08:00:11.483Z,13.89
2017-06-06T08:01:07.736Z,13.89
2017-06-06T08:02:03.984Z,13.89
2017-06-06T08:03:00.222Z,13.89
2017-06-06T08:03:56.462Z,13.90
2017-06-06T08:04:52.719Z,14.22
2017-06-06T08:05:48.986Z,13.89
2017-06-06T08:06:45.243Z,13.90
2017-06-06T08:07:41.487Z,13.90
2017-06-06T08:08:37.755Z,13.90
2017-06-06T08:09:33.999Z,14.02
2017-06-06T08:10:30.234Z,14.00
2017-06-06T08:11:26.484Z,13.96
2017-06-06T08:12:22.731Z,13.96
2017-06-06T08:13:18.987Z,13.89
2017-06-06T08:14:15.235Z,13.90
2017-06-06T08:15:11.477Z,13.90
2017-06-06T08:16:07.706Z,13.91
2017-06-06T08:17:03.967Z,13.91
2017-06-06T08:18:00.211Z,13.93
2017-06-06T08:18:56.466Z,14.25
2017-06-06T08:19:52.707Z,13.93
2017-06-06T08:20:48.948Z,14.06
2017-06-06T08:21:45.221Z,13.91
2017-06-06T08:22:41.472Z,14.30
2017-06-06T08:23:37.723Z,13.91
2017-06-06T08:24:33.977Z,13.90
2017-06-06T08:25:30.242Z,13.90
2017-06-06T08:26:26.486Z,13.91
2017-06-06T08:27:22.756Z,13.91
2017-06-06T08:28:19.008Z,14.19
2017-06-06T08:29:15.254Z,13.90
2017-06-06T08:30:11.500Z,13.91
2017-06-06T08:31:07.743Z,13.91
2017-06-06T08:32:04.022Z,13.90
2017-06-06T08:33:00.290Z,13.91
2017-06-06T08:33:56.534Z,14.24
2017-06-06T08:34:52.774Z,13.91
2017-06-06T08:35:49.031Z,13.91
2017-06-06T08:36:45.282Z,14.31
2017-06-06T08:37:41.535Z,13.91
2017-06-06T08:38:37.791Z,13.91
2017-06-06T08:39:34.030Z,13.91
2017-06-06T08:40:30.283Z,13.90
2017-06-06T08:41:26.527Z,13.90
2017-06-06T08:42:22.771Z,13.90
2017-06-06T08:43:19.062Z,14.37
2017-06-06T08:44:15.311Z,13.90
2017-06-06T08:45:11.559Z,14.34
2017-06-06T08:46:07.795Z,13.90
2017-06-06T08:47:04.044Z,13.89
2017-06-06T08:48:00.289Z,13.90
2017-06-06T08:48:56.567Z,13.89
2017-06-06T08:49:52.814Z,13.89
2017-06-06T08:50:49.094Z,13.90
2017-06-06T08:51:45.345Z,14.28
2017-06-06T08:52:41.583Z,13.89
2017-06-06T08:53:37.846Z,13.89
2017-06-06T08:54:34.093Z,14.30
2017-06-06T08:55:30.335Z,13.90
2017-06-06T08:56:26.599Z,13.94
2017-06-06T08:57:22.846Z,13.89
2017-06-06T08:58:19.094Z,13.90
2017-06-06T08:59:15.379Z,13.90
2017-06-06T09:00:11.623Z,13.90
2017-06-06T09:01:07.879Z,13.90
2017-06-06T09:02:04.127Z,13.91
2017-06-06T09:03:00.358Z,13.90
2017-06-06T09:03:56.614Z,14.37
2017-06-06T09:04:52.932Z,13.91
2017-06-06T09:05:49.172Z,13.91
2017-06-06T09:06:45.435Z,13.90
2017-06-06T09:07:41.679Z,13.91
2017-06-06T09:08:37.935Z,14.21
2017-06-06T09:09:34.175Z,13.90
2017-06-06T09:10:30.425Z,13.91
2017-06-06T09:11:26.668Z,13.90
2017-06-06T09:12:22.918Z,13.91
2017-06-06T09:13:19.163Z,13.91
2017-06-06T09:14:15.402Z,13.91
2017-06-06T09:15:11.687Z,14.27
2017-06-06T09:16:07.953Z,13.91
2017-06-06T09:17:04.194Z,13.91
2017-06-06T09:18:00.431Z,13.91
2017-06-06T09:18:56.715Z,13.91
2017-06-06T09:19:52.923Z,13.91
2017-06-06T09:20:49.183Z,13.91
2017-06-06T09:21:45.427Z,13.91
2017-06-06T09:22:41.663Z,13.91
2017-06-06T09:23:37.899Z,13.91
2017-06-06T09:24:34.138Z,13.91
2017-06-06T09:25:30.402Z,13.91
2017-06-06T09:26:26.647Z,13.91
2017-06-06T09:27:22.879Z,13.93
2017-06-06T09:28:19.131Z,13.91
2017-06-06T09:29:15.396Z,13.91
2017-06-06T09:30:11.630Z,13.91
2017-06-06T09:31:07.887Z,13.93
2017-06-06T09:32:04.123Z,13.91
2017-06-06T09:33:00.363Z,13.91
2017-06-06T09:33:56.602Z,13.91
2017-06-06T09:34:52.837Z,13.91
2017-06-06T09:35:49.095Z,13.91
2017-06-06T09:36:45.334Z,13.91
2017-06-06T09:37:41.558Z,13.91
2017-06-06T09:38:37.802Z,13.91
2017-06-06T09:39:34.031Z,14.34
2017-06-06T09:40:30.271Z,13.90
2017-06-06T09:41:26.532Z,13.91
2017-06-06T09:42:22.770Z,13.91
2017-06-06T09:43:19.030Z,13.90
2017-06-06T09:44:15.250Z,13.91
2017-06-06T09:45:11.482Z,13.91
2017-06-06T09:46:07.718Z,13.91
2017-06-06T09:47:03.979Z,13.91
2017-06-06T09:48:00.211Z,13.91
2017-06-06T09:48:56.458Z,13.91
2017-06-06T09:49:52.699Z,13.91
2017-06-06T09:50:48.934Z,13.91
2017-06-06T09:51:45.170Z,13.91
2017-06-06T09:52:41.442Z,13.91
2017-06-06T09:53:37.670Z,13.91
2017-06-06T09:54:33.920Z,14.27
2017-06-06T09:55:30.162Z,13.91
2017-06-06T09:56:26.400Z,13.91
2017-06-06T09:57:22.651Z,13.91
2017-06-06T09:58:18.891Z,13.91
2017-06-06T09:59:15.136Z,13.91
2017-06-06T10:00:11.371Z,13.91
2017-06-06T10:01:07.606Z,13.91
2017-06-06T10:02:03.838Z,13.91
2017-06-06T10:03:00.095Z,13.91
2017-06-06T10:03:56.326Z,13.91
2017-06-06T10:04:52.578Z,14.13
2017-06-06T10:05:48.814Z,13.91
2017-06-06T10:06:45.054Z,13.93
2017-06-06T10:07:41.314Z,14.08
2017-06-06T10:08:37.560Z,13.93
2017-06-06T10:09:33.798Z,13.93
2017-06-06T10:10:30.031Z,13.93
2017-06-06T10:11:26.267Z,13.93
2017-06-06T10:12:22.507Z,13.91
2017-06-06T10:13:18.784Z,13.93
2017-06-06T10:14:15.019Z,13.93
2017-06-06T10:15:11.246Z,13.93
2017-06-06T10:16:07.479Z,13.93
2017-06-06T10:17:03.706Z,14.21
2017-06-06T10:17:59.940Z,13.93
2017-06-06T10:18:56.199Z,13.93
2017-06-06T10:19:52.438Z,13.91
2017-06-06T10:20:48.670Z,13.93
2017-06-06T10:21:44.919Z,13.93
2017-06-06T10:22:41.162Z,13.91
2017-06-06T10:23:37.413Z,13.93
2017-06-06T10:24:33.659Z,13.93
2017-06-06T10:25:29.890Z,13.93
2017-06-06T10:26:26.127Z,13.93
2017-06-06T10:27:22.378Z,14.47
2017-06-06T10:28:18.623Z,13.91
2017-06-06T10:29:14.879Z,13.91
2017-06-06T10:30:11.107Z,13.91
2017-06-06T10:31:07.347Z,13.91
2017-06-06T10:32:03.596Z,13.91
2017-06-06T10:32:59.835Z,13.91
2017-06-06T10:33:56.070Z,13.91
2017-06-06T10:34:52.315Z,13.91
2017-06-06T10:35:48.540Z,13.91
2017-06-06T10:36:44.792Z,13.91
2017-06-06T10:37:41.035Z,13.90
2017-06-06T10:38:37.274Z,13.91
2017-06-06T10:39:33.554Z,13.91
2017-06-06T10:40:29.791Z,13.91
2017-06-06T10:41:26.026Z,13.91
2017-06-06T10:42:22.275Z,13.91
2017-06-06T10:43:18.518Z,13.91
2017-06-06T10:44:14.746Z,13.91
2017-06-06T10:45:10.995Z,13.91
2017-06-06T10:46:07.222Z,13.91
2017-06-06T10:47:03.458Z,13.91
2017-06-06T10:47:59.698Z,13.91
2017-06-06T10:48:55.927Z,13.90
2017-06-06T10:49:52.188Z,13.91
2017-06-06T10:50:48.455Z,13.91
2017-06-06T10:51:44.691Z,13.91
2017-06-06T10:52:40.923Z,13.91
2017-06-06T10:53:37.162Z,13.91
2017-06-06T10:54:33.414Z,13.91
2017-06-06T10:55:29.665Z,13.91
2017-06-06T10:56:25.915Z,13.91
2017-06-06T10:57:22.165Z,13.90
2017-06-06T10:58:18.403Z,13.90
2017-06-06T10:59:14.643Z,13.90
2017-06-06T11:00:10.891Z,13.89
2017-06-06T11:01:07.143Z,13.89
2017-06-06T11:02:03.378Z,13.89
2017-06-06T11:02:59.638Z,13.89
2017-06-06T11:03:55.871Z,13.89
2017-06-06T11:04:52.116Z,13.89
2017-06-06T11:05:48.379Z,13.90
2017-06-06T11:06:44.622Z,13.89
2017-06-06T11:07:40.879Z,13.89
2017-06-06T11:08:37.110Z,13.89
2017-06-06T11:09:33.339Z,13.89
2017-06-06T11:10:29.566Z,13.89
2017-06-06T11:11:25.807Z,13.89
2017-06-06T11:12:22.071Z,13.89
2017-06-06T11:13:18.295Z,13.89
2017-06-06T11:14:14.542Z,13.89
2017-06-06T11:15:10.774Z,13.89
2017-06-06T11:16:07.006Z,13.89
2017-06-06T11:17:03.263Z,13.89
2017-06-06T11:17:59.490Z,13.89
2017-06-06T11:18:55.736Z,13.89
2017-06-06T11:19:52.555Z,13.89
2017-06-06T11:20:48.807Z,13.87
2017-06-06T11:21:45.050Z,13.89
2017-06-06T11:22:41.313Z,13.87
2017-06-06T11:23:37.539Z,13.89
2017-06-06T11:24:33.783Z,13.87
2017-06-06T11:25:30.022Z,13.87
2017-06-06T11:26:26.255Z,13.87
2017-06-06T11:27:22.491Z,13.89
2017-06-06T11:28:19.627Z,13.89
2017-06-06T11:29:15.867Z,13.89
2017-06-06T11:30:12.099Z,13.89
2017-06-06T11:31:08.330Z,13.89
2017-06-06T11:32:04.559Z,13.89
2017-06-06T11:33:00.831Z,13.89
2017-06-06T11:33:57.067Z,13.89
2017-06-06T11:34:53.315Z,13.90
2017-06-06T11:35:49.550Z,13.90
2017-06-06T11:36:45.788Z,13.90
2017-06-06T11:37:42.047Z,13.90
2017-06-06T11:38:38.328Z,13.90
2017-06-06T11:39:34.567Z,13.90
2017-06-06T11:40:30.806Z,13.90
2017-06-06T11:41:27.062Z,13.90
2017-06-06T11:42:23.294Z,13.90
2017-06-06T11:43:19.539Z,13.90
2017-06-06T11:44:15.815Z,13.91
2017-06-06T11:45:12.103Z,13.96
2017-06-06T11:46:08.343Z,13.90
2017-06-06T11:47:04.572Z,13.90
2017-06-06T11:48:00.827Z,13.90
2017-06-06T11:48:57.079Z,13.90
2017-06-06T11:49:53.507Z,13.90
2017-06-06T11:50:49.743Z,13.90
2017-06-06T11:51:45.993Z,13.90
2017-06-06T11:52:42.235Z,13.90
2017-06-06T11:53:38.471Z,13.90
2017-06-06T11:54:34.760Z,13.89
2017-06-06T11:55:31.007Z,13.89
2017-06-06T11:56:27.254Z,13.89
2017-06-06T11:57:23.499Z,13.89
2017-06-06T11:58:19.743Z,13.87
2017-06-06T11:59:16.013Z,13.86
2017-06-06T12:00:12.272Z,13.84
2017-06-06T12:01:08.495Z,13.84
2017-06-06T12:02:04.735Z,13.84
2017-06-06T12:03:00.971Z,14.25
2017-06-06T12:03:57.210Z,13.87
2017-06-06T12:04:53.461Z,13.87
2017-06-06T12:05:49.710Z,13.89